createdAt,value
2018-07-27T00:02:03.856Z,95.60
2018-07-27T00:04:33.177Z,95.60
2018-07-27T00:07:02.586Z,95.70
2018-07-27T00:09:31.929Z,95.90
2018-07-27T00:12:01.286Z,96.20
2018-07-27T00:14:30.590Z,96.70
2018-07-27T00:16:59.872Z,97.80
2018-07-27T00:19:30.222Z,98.30
2018-07-27T00:21:59.534Z,98.40
2018-07-27T00:24:28.810Z,98.20
2018-07-27T00:26:58.174Z,98.40
2018-07-27T00:29:27.581Z,98.60
2018-07-27T00:31:56.879Z,98.90
2018-07-27T00:34:26.155Z,98.50
2018-07-27T00:36:55.446Z,98.80
2018-07-27T00:39:24.800Z,99.30
2018-07-27T00:41:54.118Z,99.60
2018-07-27T00:44:23.393Z,99.90
2018-07-27T00:46:52.677Z,99.90
2018-07-27T00:49:22.062Z,99.90
2018-07-27T00:51:51.361Z,99.90
2018-07-27T00:56:49.532Z,99.90
2018-07-27T00:59:18.782Z,99.90
2018-07-27T01:01:48.140Z,99.90
2018-07-27T01:04:17.501Z,99.90
2018-07-27T01:06:46.862Z,99.90
2018-07-27T01:09:16.210Z,99.90
2018-07-27T01:11:45.727Z,99.90
2018-07-27T01:14:15.085Z,99.90
2018-07-27T01:16:44.426Z,99.90
2018-07-27T01:19:13.811Z,99.90
2018-07-27T01:21:43.248Z,99.90
2018-07-27T01:24:12.613Z,99.90
2018-07-27T01:26:45.269Z,99.90
2018-07-27T01:29:16.506Z,99.90
2018-07-27T01:31:46.106Z,99.90
2018-07-27T01:34:15.449Z,99.90
2018-07-27T01:36:44.790Z,99.90
2018-07-27T01:39:15.237Z,99.90
2018-07-27T01:41:44.705Z,99.90
2018-07-27T01:44:14.070Z,99.90
2018-07-27T01:46:43.419Z,99.90
2018-07-27T01:49:12.773Z,99.90
2018-07-27T01:51:42.108Z,99.90
2018-07-27T01:54:11.434Z,99.90
2018-07-27T01:56:40.815Z,99.90
2018-07-27T01:59:10.169Z,99.90
2018-07-27T02:01:39.779Z,99.90
2018-07-27T02:04:09.118Z,99.90
2018-07-27T02:06:38.600Z,99.90
2018-07-27T02:09:09.391Z,99.90
2018-07-27T02:11:38.931Z,99.90
2018-07-27T02:14:08.378Z,99.90
2018-07-27T02:16:37.765Z,99.90
2018-07-27T02:19:08.226Z,99.90
2018-07-27T02:21:37.605Z,99.90
2018-07-27T02:24:06.901Z,99.90
2018-07-27T02:26:36.200Z,99.90
2018-07-27T02:29:05.539Z,99.90
2018-07-27T02:34:03.792Z,99.90
2018-07-27T02:36:33.154Z,99.90
2018-07-27T02:41:32.192Z,99.90
2018-07-27T02:44:01.515Z,99.90
2018-07-27T02:46:31.082Z,99.90
2018-07-27T02:49:00.595Z,99.90
2018-07-27T02:51:30.099Z,99.90
2018-07-27T02:53:59.405Z,99.90
2018-07-27T02:56:28.762Z,99.90
2018-07-27T02:58:58.089Z,99.90
2018-07-27T03:01:27.485Z,99.90
2018-07-27T03:03:56.852Z,99.90
2018-07-27T03:06:26.174Z,99.90
2018-07-27T03:08:55.487Z,99.90
2018-07-27T03:13:53.775Z,99.90
2018-07-27T03:16:23.088Z,99.90
2018-07-27T03:18:52.425Z,99.90
2018-07-27T03:21:21.819Z,99.90
2018-07-27T03:23:51.207Z,99.90
2018-07-27T03:26:20.526Z,99.90
2018-07-27T03:28:50.479Z,99.90
2018-07-27T03:31:19.863Z,99.90
2018-07-27T03:33:49.297Z,99.90
2018-07-27T03:36:18.678Z,99.90
2018-07-27T03:38:48.065Z,99.90
2018-07-27T03:41:17.411Z,99.90
2018-07-27T03:43:46.885Z,99.90
2018-07-27T03:46:16.307Z,99.90
2018-07-27T03:48:45.670Z,99.90
2018-07-27T03:51:15.047Z,99.90
2018-07-27T03:53:44.419Z,99.90
2018-07-27T03:56:13.813Z,99.90
2018-07-27T03:58:43.206Z,99.90
2018-07-27T04:01:12.580Z,99.90
2018-07-27T04:03:41.979Z,99.90
2018-07-27T04:06:11.334Z,99.90
2018-07-27T04:08:40.863Z,99.90
2018-07-27T04:11:10.216Z,99.90
2018-07-27T04:13:39.626Z,99.90
2018-07-27T04:16:08.986Z,99.90
2018-07-27T04:18:39.358Z,99.90
2018-07-27T04:21:08.751Z,99.90
2018-07-27T04:23:38.138Z,99.90
2018-07-27T04:26:07.469Z,99.90
2018-07-27T04:28:36.789Z,99.90
2018-07-27T04:31:06.159Z,99.90
2018-07-27T04:33:35.498Z,99.90
2018-07-27T04:36:04.838Z,99.90
2018-07-27T04:38:34.125Z,99.90
2018-07-27T04:41:03.462Z,99.90
2018-07-27T04:43:33.011Z,99.90
2018-07-27T04:46:02.381Z,99.90
2018-07-27T04:48:31.725Z,99.90
2018-07-27T04:51:01.042Z,99.90
2018-07-27T04:53:30.414Z,99.90
2018-07-27T04:55:59.792Z,99.90
2018-07-27T04:58:29.198Z,99.90
2018-07-27T05:00:58.536Z,99.90
2018-07-27T05:03:27.872Z,99.90
2018-07-27T05:05:57.223Z,99.90
2018-07-27T05:08:26.558Z,99.90
2018-07-27T05:10:55.960Z,99.90
2018-07-27T05:13:25.295Z,99.90
2018-07-27T05:15:54.648Z,99.90
2018-07-27T05:18:24.072Z,99.90
2018-07-27T05:20:53.396Z,99.90
2018-07-27T05:23:22.752Z,99.90
2018-07-27T05:25:52.073Z,99.90
2018-07-27T05:28:21.492Z,99.90
2018-07-27T05:30:50.835Z,99.90
2018-07-27T05:33:20.172Z,99.90
2018-07-27T05:35:49.551Z,99.90
2018-07-27T05:38:18.911Z,99.90
2018-07-27T05:40:48.284Z,99.90
2018-07-27T05:43:17.659Z,99.90
2018-07-27T05:45:46.988Z,99.90
2018-07-27T05:48:16.383Z,99.90
2018-07-27T05:50:45.735Z,99.90
2018-07-27T05:53:15.123Z,99.90
2018-07-27T05:55:44.495Z,99.90
2018-07-27T05:58:13.918Z,99.90
2018-07-27T06:00:43.315Z,99.90
2018-07-27T06:03:12.813Z,99.90
2018-07-27T06:05:42.216Z,99.90
2018-07-27T06:08:11.598Z,99.90
2018-07-27T06:10:40.979Z,99.90
2018-07-27T06:13:10.316Z,99.90
2018-07-27T06:15:39.819Z,99.90
2018-07-27T06:18:09.516Z,99.90
2018-07-27T06:20:38.803Z,99.90
2018-07-27T06:23:08.363Z,99.90
2018-07-27T06:25:38.785Z,99.90
2018-07-27T06:28:08.181Z,99.90
2018-07-27T06:30:37.612Z,99.90
2018-07-27T06:33:06.968Z,99.90
2018-07-27T06:35:36.400Z,99.90
2018-07-27T06:38:05.815Z,99.20
2018-07-27T06:40:35.184Z,98.80
2018-07-27T06:43:04.598Z,98.60
2018-07-27T06:45:33.905Z,97.30
2018-07-27T06:48:03.327Z,97.00
2018-07-27T06:50:32.675Z,96.50
2018-07-27T06:55:30.955Z,96.00
2018-07-27T06:58:00.331Z,95.70
2018-07-27T07:00:29.684Z,96.60
2018-07-27T07:02:59.058Z,96.00
2018-07-27T07:05:28.387Z,95.90
2018-07-27T07:07:57.767Z,95.20
2018-07-27T07:10:27.245Z,95.50
2018-07-27T07:12:56.627Z,95.00
2018-07-27T07:15:26.044Z,94.60
2018-07-27T07:17:55.479Z,94.90
2018-07-27T07:20:24.985Z,93.90
2018-07-27T07:22:54.403Z,94.40
2018-07-27T07:25:23.901Z,93.60
2018-07-27T07:27:53.217Z,93.20
2018-07-27T07:30:22.673Z,93.00
2018-07-27T07:32:52.047Z,92.70
2018-07-27T07:35:21.536Z,93.30
2018-07-27T07:37:50.946Z,93.00
2018-07-27T07:40:20.375Z,92.10
2018-07-27T07:42:49.766Z,92.70
2018-07-27T07:45:19.149Z,91.80
2018-07-27T07:47:48.593Z,91.60
2018-07-27T07:50:17.986Z,91.40
2018-07-27T07:52:47.391Z,91.70
2018-07-27T07:55:16.767Z,92.60
2018-07-27T07:57:46.150Z,92.10
2018-07-27T08:00:15.724Z,91.60
2018-07-27T08:02:45.118Z,91.30
2018-07-27T08:05:14.532Z,90.10
2018-07-27T08:10:12.805Z,90.40
2018-07-27T08:12:42.152Z,90.00
2018-07-27T08:15:11.658Z,89.40
2018-07-27T08:17:40.986Z,89.40
2018-07-27T08:20:10.402Z,89.70
2018-07-27T08:22:39.767Z,88.60
2018-07-27T08:27:38.083Z,89.60
2018-07-27T08:30:07.987Z,87.50
2018-07-27T08:32:37.299Z,87.80
2018-07-27T08:35:06.702Z,87.50
2018-07-27T08:37:36.023Z,86.40
2018-07-27T08:40:05.752Z,86.60
2018-07-27T08:42:35.120Z,88.60
2018-07-27T08:45:05.035Z,85.40
2018-07-27T08:47:34.464Z,85.00
2018-07-27T08:50:03.906Z,86.60
2018-07-27T08:52:33.319Z,86.20
2018-07-27T08:55:02.691Z,84.50
2018-07-27T08:57:32.103Z,84.00
2018-07-27T09:00:07.771Z,85.00
2018-07-27T09:02:37.138Z,83.80
2018-07-27T09:05:07.423Z,85.00
2018-07-27T09:07:36.757Z,85.20
2018-07-27T09:10:06.188Z,85.20
2018-07-27T09:12:35.578Z,84.50
2018-07-27T09:15:04.999Z,84.70
2018-07-27T09:17:34.378Z,86.40
2018-07-27T09:20:03.841Z,83.80
2018-07-27T09:22:33.210Z,82.00
2018-07-27T09:25:02.908Z,82.50
2018-07-27T09:27:31.911Z,83.70
2018-07-27T09:32:30.211Z,83.40
2018-07-27T09:34:59.606Z,84.50
2018-07-27T09:37:28.990Z,82.70
2018-07-27T09:39:58.438Z,83.00
2018-07-27T09:42:27.838Z,82.50
2018-07-27T09:44:57.191Z,82.20
2018-07-27T09:47:26.543Z,82.00
2018-07-27T09:49:55.886Z,81.50
2018-07-27T09:52:25.223Z,80.10
2018-07-27T09:54:54.599Z,78.70
2018-07-27T09:57:24.008Z,77.50
2018-07-27T09:59:53.386Z,76.00
2018-07-27T10:02:22.807Z,76.40
2018-07-27T10:04:52.164Z,76.90
2018-07-27T10:07:21.627Z,77.10
2018-07-27T10:09:51.038Z,76.60
2018-07-27T10:12:20.406Z,76.10
2018-07-27T10:14:49.795Z,76.70
2018-07-27T10:17:19.142Z,76.90
2018-07-27T10:19:48.572Z,76.90
2018-07-27T10:24:46.942Z,75.80
2018-07-27T10:27:16.288Z,76.50
2018-07-27T10:29:45.654Z,76.80
2018-07-27T10:32:15.057Z,74.40
2018-07-27T10:34:44.428Z,73.40
2018-07-27T10:37:13.798Z,74.40
2018-07-27T10:39:43.123Z,71.50
2018-07-27T10:42:12.595Z,74.20
2018-07-27T10:44:42.065Z,68.90
2018-07-27T10:47:11.485Z,68.40
2018-07-27T10:49:40.818Z,74.90
2018-07-27T10:52:10.295Z,74.90
2018-07-27T10:54:39.658Z,73.30
2018-07-27T10:57:09.207Z,73.40
2018-07-27T10:59:38.719Z,72.70
2018-07-27T11:02:08.324Z,72.00
2018-07-27T11:04:37.697Z,71.70
2018-07-27T11:07:07.099Z,74.00
2018-07-27T11:12:05.454Z,72.20
2018-07-27T11:14:34.802Z,71.30
2018-07-27T11:17:04.230Z,70.20
2018-07-27T11:19:34.156Z,71.20
2018-07-27T11:22:03.622Z,71.20
2018-07-27T11:24:33.022Z,68.80
2018-07-27T11:27:02.389Z,68.60
2018-07-27T11:29:31.777Z,69.70
2018-07-27T11:32:01.192Z,69.40
2018-07-27T11:34:30.528Z,69.50
2018-07-27T11:36:59.948Z,71.20
2018-07-27T11:39:29.300Z,70.40
2018-07-27T11:41:58.738Z,67.40
2018-07-27T11:44:28.126Z,69.50
2018-07-27T11:46:57.550Z,70.40
2018-07-27T11:49:27.012Z,69.40
2018-07-27T11:51:56.604Z,68.90
2018-07-27T11:54:26.063Z,69.70
2018-07-27T11:56:55.525Z,68.90
2018-07-27T11:59:24.966Z,68.80
2018-07-27T12:01:54.793Z,65.70
2018-07-27T12:04:24.145Z,65.20
2018-07-27T12:06:54.603Z,68.10
2018-07-27T12:09:23.920Z,66.80
2018-07-27T12:11:53.295Z,66.20
2018-07-27T12:14:22.870Z,64.40
2018-07-27T12:16:52.064Z,67.10
2018-07-27T12:19:21.430Z,66.30
2018-07-27T12:21:50.780Z,65.80
2018-07-27T12:24:20.200Z,64.60
2018-07-27T12:26:50.223Z,63.60
2018-07-27T12:29:19.707Z,63.90
2018-07-27T12:31:49.234Z,59.50
2018-07-27T12:34:18.831Z,62.50
2018-07-27T12:36:48.455Z,61.20
2018-07-27T12:39:18.096Z,61.50
2018-07-27T12:41:47.546Z,61.30
2018-07-27T12:44:17.074Z,61.40
2018-07-27T12:46:46.742Z,62.60
2018-07-27T12:49:16.495Z,62.00
2018-07-27T12:51:45.941Z,62.20
2018-07-27T12:54:16.384Z,61.90
2018-07-27T12:56:46.093Z,62.70
2018-07-27T12:59:15.648Z,64.40
2018-07-27T13:01:45.708Z,63.50
2018-07-27T13:04:15.663Z,61.40
2018-07-27T13:09:15.216Z,59.80
2018-07-27T13:11:44.859Z,60.60
2018-07-27T13:14:15.386Z,59.70
2018-07-27T13:16:45.061Z,59.00
2018-07-27T13:19:15.572Z,58.80
2018-07-27T13:21:45.295Z,57.40
2018-07-27T13:24:14.883Z,58.60
2018-07-27T13:26:45.609Z,57.70
2018-07-27T13:29:15.027Z,57.50
2018-07-27T13:31:48.527Z,57.40
2018-07-27T13:34:39.405Z,57.60
2018-07-27T13:37:09.323Z,57.00
2018-07-27T13:39:39.557Z,56.20
2018-07-27T13:42:11.042Z,57.00
2018-07-27T13:44:41.125Z,56.70
2018-07-27T13:47:11.046Z,58.00
2018-07-27T13:49:40.560Z,59.20
2018-07-27T13:52:10.301Z,59.40
2018-07-27T13:54:39.942Z,59.40
2018-07-27T13:57:09.895Z,58.10
2018-07-27T13:59:39.717Z,58.80
2018-07-27T14:02:09.842Z,59.00
2018-07-27T14:04:39.510Z,58.30
2018-07-27T14:07:09.905Z,57.70
2018-07-27T14:09:39.971Z,57.80
2018-07-27T14:12:09.807Z,56.70
2018-07-27T14:14:39.515Z,56.40
2018-07-27T14:17:08.971Z,56.00
2018-07-27T14:19:38.584Z,56.80
2018-07-27T14:22:08.245Z,55.30
2018-07-27T14:24:38.039Z,57.00
2018-07-27T14:27:07.475Z,55.50
2018-07-27T14:29:36.976Z,55.30
2018-07-27T14:37:04.546Z,55.40
2018-07-27T14:39:34.164Z,54.10
2018-07-27T14:42:03.668Z,53.60
2018-07-27T14:44:33.219Z,53.90
2018-07-27T14:47:03.032Z,56.40
2018-07-27T14:49:32.653Z,55.60
2018-07-27T14:52:02.193Z,54.80
2018-07-27T14:54:32.486Z,54.60
2018-07-27T14:57:02.892Z,52.80
2018-07-27T14:59:32.479Z,53.40
2018-07-27T15:02:02.082Z,53.40
2018-07-27T15:07:00.559Z,54.30
2018-07-27T15:09:30.128Z,52.00
2018-07-27T15:11:59.601Z,53.00
2018-07-27T15:14:28.965Z,52.40
2018-07-27T15:16:58.448Z,54.50
2018-07-27T15:19:27.820Z,54.80
2018-07-27T15:21:57.202Z,54.40
2018-07-27T15:24:26.765Z,54.40
2018-07-27T15:26:56.183Z,54.00
2018-07-27T15:29:25.553Z,54.00
2018-07-27T15:31:55.086Z,56.10
2018-07-27T15:34:24.656Z,56.90
2018-07-27T15:36:55.125Z,56.50
2018-07-27T15:39:25.564Z,57.30
2018-07-27T15:41:56.525Z,57.40
2018-07-27T15:46:55.267Z,57.70
2018-07-27T15:49:24.938Z,58.40
2018-07-27T15:51:54.570Z,58.30
2018-07-27T15:54:23.962Z,58.30
2018-07-27T15:59:22.596Z,58.40
2018-07-27T16:01:52.156Z,58.80
2018-07-27T16:04:21.894Z,58.10
2018-07-27T16:06:51.479Z,58.60
2018-07-27T16:09:20.957Z,57.70
2018-07-27T16:11:50.824Z,58.00
2018-07-27T16:14:20.581Z,58.90
2018-07-27T16:16:50.076Z,58.40
2018-07-27T16:19:19.664Z,57.90
2018-07-27T16:21:49.162Z,57.50
2018-07-27T16:24:18.529Z,57.60
2018-07-27T16:26:47.910Z,57.40
2018-07-27T16:29:17.300Z,56.80
2018-07-27T16:31:46.856Z,57.10
2018-07-27T16:34:16.320Z,56.60
2018-07-27T16:36:45.730Z,56.70
2018-07-27T16:39:15.144Z,57.90
2018-07-27T16:41:44.591Z,58.20
2018-07-27T16:44:14.059Z,58.50
2018-07-27T16:46:43.471Z,58.90
2018-07-27T16:49:12.857Z,59.20
2018-07-27T16:51:42.186Z,59.00
2018-07-27T16:56:40.428Z,63.50
2018-07-27T16:59:09.771Z,65.20
2018-07-27T17:04:08.175Z,67.40
2018-07-27T17:09:09.717Z,67.00
2018-07-27T17:11:39.387Z,67.50
2018-07-27T17:14:08.952Z,68.60
2018-07-27T17:16:38.426Z,69.00
2018-07-27T17:19:07.862Z,68.70
2018-07-27T17:21:37.733Z,69.50
2018-07-27T17:24:07.229Z,69.50
2018-07-27T17:26:41.566Z,69.90
2018-07-27T17:29:10.962Z,70.50
2018-07-27T17:31:40.477Z,70.80
2018-07-27T17:34:09.982Z,71.20
2018-07-27T17:36:39.546Z,69.80
2018-07-27T17:39:10.970Z,70.40
2018-07-27T17:41:40.480Z,70.70
2018-07-27T17:46:40.069Z,70.40
2018-07-27T17:49:10.203Z,71.00
2018-07-27T17:51:39.762Z,71.50
2018-07-27T17:54:10.614Z,70.70
2018-07-27T17:56:40.190Z,71.20
2018-07-27T17:59:09.823Z,71.60
2018-07-27T18:01:39.439Z,71.80
2018-07-27T18:04:09.019Z,71.50
2018-07-27T18:06:38.622Z,71.00
2018-07-27T18:09:11.367Z,71.60
2018-07-27T18:11:41.139Z,71.70
2018-07-27T18:14:10.938Z,71.70
2018-07-27T18:16:40.570Z,71.50
2018-07-27T18:19:10.209Z,71.00
2018-07-27T18:21:39.972Z,71.40
2018-07-27T18:24:09.561Z,71.40
2018-07-27T18:26:39.069Z,71.90
2018-07-27T18:29:09.694Z,71.70
2018-07-27T18:31:39.167Z,72.20
2018-07-27T18:34:08.811Z,71.50
2018-07-27T18:36:38.831Z,72.40
2018-07-27T18:39:10.384Z,72.30
2018-07-27T18:41:39.985Z,72.80
2018-07-27T18:44:09.648Z,72.30
2018-07-27T18:46:40.144Z,72.20
2018-07-27T18:49:10.281Z,72.40
2018-07-27T18:51:40.256Z,73.60
2018-07-27T18:54:10.019Z,72.90
2018-07-27T18:56:39.712Z,73.60
2018-07-27T18:59:09.321Z,74.20
2018-07-27T19:01:39.081Z,73.70
2018-07-27T19:04:08.542Z,75.10
2018-07-27T19:06:38.015Z,75.20
2018-07-27T19:09:12.301Z,75.50
2018-07-27T19:11:41.915Z,75.70
2018-07-27T19:14:11.493Z,75.00
2018-07-27T19:16:41.329Z,76.90
2018-07-27T19:19:10.742Z,76.50
2018-07-27T19:24:09.560Z,76.90
2018-07-27T19:26:39.576Z,77.00
2018-07-27T19:29:09.121Z,76.90
2018-07-27T19:31:38.792Z,76.80
2018-07-27T19:34:08.476Z,76.40
2018-07-27T19:36:38.065Z,76.20
2018-07-27T19:39:09.792Z,77.60
2018-07-27T19:41:39.411Z,78.10
2018-07-27T19:44:09.000Z,78.50
2018-07-27T19:46:39.043Z,79.20
2018-07-27T19:49:08.502Z,80.20
2018-07-27T19:51:38.154Z,80.40
2018-07-27T19:54:07.904Z,81.10
2018-07-27T19:56:37.563Z,80.70
2018-07-27T19:59:07.561Z,81.20
2018-07-27T20:01:37.127Z,81.80
2018-07-27T20:04:06.672Z,81.60
2018-07-27T20:06:36.513Z,81.90
2018-07-27T20:09:08.663Z,81.70
2018-07-27T20:11:38.212Z,81.80
2018-07-27T20:14:07.695Z,82.50
2018-07-27T20:16:37.381Z,82.40
2018-07-27T20:19:06.916Z,83.20
2018-07-27T20:21:36.670Z,84.70
2018-07-27T20:24:06.207Z,84.40
2018-07-27T20:26:36.788Z,84.50
2018-07-27T20:29:06.252Z,84.50
2018-07-27T20:31:35.868Z,84.90
2018-07-27T20:34:05.520Z,84.80
2018-07-27T20:36:34.950Z,85.70
2018-07-27T20:39:07.075Z,85.20
2018-07-27T20:41:36.520Z,85.10
2018-07-27T20:44:06.094Z,85.80
2018-07-27T20:46:35.652Z,85.90
2018-07-27T20:49:05.449Z,85.60
2018-07-27T20:51:35.071Z,86.00
2018-07-27T20:54:04.685Z,86.30
2018-07-27T20:56:34.119Z,86.40
2018-07-27T20:59:03.648Z,87.30
2018-07-27T21:01:33.152Z,86.90
2018-07-27T21:04:02.720Z,88.10
2018-07-27T21:06:32.185Z,89.60
2018-07-27T21:09:01.862Z,90.00
2018-07-27T21:11:31.542Z,90.10
2018-07-27T21:14:01.149Z,90.10
2018-07-27T21:16:30.621Z,90.00
2018-07-27T21:19:00.194Z,90.10
2018-07-27T21:21:29.743Z,90.70
2018-07-27T21:23:59.136Z,90.90
2018-07-27T21:28:57.822Z,91.00
2018-07-27T21:31:27.309Z,90.70
2018-07-27T21:33:56.711Z,90.60
2018-07-27T21:36:26.213Z,91.10
2018-07-27T21:38:55.846Z,91.90
2018-07-27T21:41:25.346Z,92.80
2018-07-27T21:43:55.078Z,93.50
2018-07-27T21:46:24.583Z,93.90
2018-07-27T21:48:54.016Z,94.40
2018-07-27T21:51:23.451Z,94.30
2018-07-27T21:53:52.907Z,94.00
2018-07-27T21:56:22.352Z,93.80
2018-07-27T21:58:51.813Z,93.30
2018-07-27T22:01:21.356Z,93.60
2018-07-27T22:03:50.773Z,93.90
2018-07-27T22:06:20.187Z,94.40
2018-07-27T22:08:49.810Z,94.50
2018-07-27T22:11:19.271Z,95.10
2018-07-27T22:13:48.739Z,94.90
2018-07-27T22:16:18.411Z,95.00
2018-07-27T22:21:16.781Z,94.50
2018-07-27T22:23:46.261Z,94.40
2018-07-27T22:26:15.627Z,94.70
2018-07-27T22:28:45.075Z,95.10
2018-07-27T22:31:14.622Z,95.90
2018-07-27T22:33:44.135Z,96.10
2018-07-27T22:36:13.623Z,95.90
2018-07-27T22:38:43.088Z,96.30
2018-07-27T22:41:12.534Z,96.10
2018-07-27T22:43:41.967Z,95.60
2018-07-27T22:46:11.368Z,95.40
2018-07-27T22:48:40.785Z,96.20
2018-07-27T22:51:10.206Z,96.40
2018-07-27T22:53:39.767Z,95.90
2018-07-27T22:58:38.060Z,96.50
2018-07-27T23:01:07.435Z,96.60
2018-07-27T23:03:36.854Z,96.80
2018-07-27T23:06:06.288Z,97.80
2018-07-27T23:08:35.707Z,97.80
2018-07-27T23:11:05.212Z,97.90
2018-07-27T23:13:34.614Z,98.10
2018-07-27T23:16:04.098Z,98.40
2018-07-27T23:18:33.513Z,98.80
2018-07-27T23:21:02.884Z,98.50
2018-07-27T23:23:32.303Z,98.40
2018-07-27T23:26:01.776Z,98.80
2018-07-27T23:28:32.291Z,99.20
2018-07-27T23:31:01.699Z,99.60
2018-07-27T23:33:31.187Z,99.90
2018-07-27T23:36:00.617Z,99.90
2018-07-27T23:38:30.076Z,99.90
2018-07-27T23:40:59.443Z,99.90
2018-07-27T23:43:28.796Z,99.90
2018-07-27T23:45:58.251Z,99.90
2018-07-27T23:48:27.739Z,99.90
2018-07-27T23:50:57.163Z,99.90
2018-07-27T23:53:26.746Z,99.90
2018-07-27T23:55:56.209Z,99.90
2018-07-27T23:58:25.604Z,99.90
